createdAt,value
2022-08-23T03:32:28.437Z,1017.05
2022-08-23T03:33:22.725Z,1017.04
2022-08-23T03:34:22.694Z,1017.05
2022-08-23T03:35:22.689Z,1017.05
2022-08-23T03:36:27.998Z,1017.12
2022-08-23T03:37:22.678Z,1017.03
2022-08-23T03:38:22.692Z,1017.09
2022-08-23T03:39:22.678Z,1017.05
2022-08-23T03:40:22.747Z,1017.01
2022-08-23T03:41:22.673Z,1017.04
2022-08-23T03:42:22.673Z,1017.03
2022-08-23T03:43:22.698Z,1017.03
2022-08-23T03:44:22.679Z,1017
2022-08-23T03:45:22.680Z,1017.02
2022-08-23T03:46:22.677Z,1017
2022-08-23T03:47:23.783Z,1017.03
2022-08-23T03:48:22.679Z,1017.06
2022-08-23T03:49:22.673Z,1017.04
2022-08-23T03:50:22.697Z,1017.05
2022-08-23T03:51:22.672Z,1017.05
2022-08-23T03:52:22.683Z,1017.07
2022-08-23T03:53:22.681Z,1017.03
2022-08-23T03:54:22.696Z,1017.04
2022-08-23T03:55:22.680Z,1017.01
2022-08-23T03:56:22.668Z,1017.02
2022-08-23T03:57:22.684Z,1017.01
2022-08-23T03:58:22.681Z,1017.02
2022-08-23T03:59:22.663Z,1017.02
2022-08-23T04:00:22.667Z,1017.02
2022-08-23T04:01:27.867Z,1017.02
2022-08-23T04:02:22.675Z,1017.07
2022-08-23T04:03:22.698Z,1017.07
2022-08-23T04:04:22.679Z,1017.06
2022-08-23T04:05:22.679Z,1017.06
2022-08-23T04:06:22.674Z,1017.02
2022-08-23T04:07:22.659Z,1017.1
2022-08-23T04:08:31.947Z,1017.1
2022-08-23T04:09:22.654Z,1017.1
2022-08-23T04:10:22.684Z,1017.09
2022-08-23T04:11:22.669Z,1017.12
2022-08-23T04:12:22.662Z,1017.1
2022-08-23T04:13:22.702Z,1017.14
2022-08-23T04:14:22.685Z,1017.16
2022-08-23T04:15:22.666Z,1017.16
2022-08-23T04:16:22.657Z,1017.15
2022-08-23T04:17:22.672Z,1017.18
2022-08-23T04:18:22.680Z,1017.17
2022-08-23T04:19:22.685Z,1017.16
2022-08-23T04:20:22.686Z,1017.16
2022-08-23T04:21:22.668Z,1017.21
2022-08-23T04:22:22.675Z,1017.21
2022-08-23T04:23:22.674Z,1017.18
2022-08-23T04:24:22.662Z,1017.17
2022-08-23T04:25:33.339Z,1017.16
2022-08-23T04:26:23.648Z,1017.16
2022-08-23T04:27:22.677Z,1017.14
2022-08-23T04:28:22.680Z,1017.14
2022-08-23T04:29:34.020Z,1017.16
2022-08-23T04:30:22.654Z,1017.16
2022-08-23T04:31:22.655Z,1017.18
2022-08-23T04:32:28.179Z,1017.2
2022-08-23T04:33:22.686Z,1017.19
2022-08-23T04:34:22.674Z,1017.21
2022-08-23T04:35:22.674Z,1017.21
2022-08-23T04:36:23.411Z,1017.26
2022-08-23T04:37:22.668Z,1017.27
2022-08-23T04:38:24.981Z,1017.27
2022-08-23T04:39:22.658Z,1017.27
2022-08-23T04:40:22.811Z,1017.27
2022-08-23T04:41:22.673Z,1017.27
2022-08-23T04:42:22.811Z,1017.33
2022-08-23T04:43:22.683Z,1017.28
2022-08-23T04:44:22.675Z,1017.27
2022-08-23T04:45:22.674Z,1017.27
2022-08-23T04:46:22.671Z,1017.31
2022-08-23T04:47:22.671Z,1017.28
2022-08-23T04:48:22.675Z,1017.31
2022-08-23T04:49:22.673Z,1017.26
2022-08-23T04:50:22.650Z,1017.26
2022-08-23T09:39:22.667Z,1018.64
2022-08-23T09:40:22.692Z,1018.64
2022-08-23T09:41:22.659Z,1018.65
2022-08-23T09:42:22.661Z,1018.6
2022-08-23T09:43:22.660Z,1018.64
2022-08-23T09:44:22.666Z,1018.63
2022-08-23T09:45:22.672Z,1018.62
2022-08-23T09:46:22.684Z,1018.6
2022-08-23T09:47:22.662Z,1018.62
2022-08-23T09:48:22.658Z,1018.58
2022-08-23T09:49:22.670Z,1018.61
2022-08-23T09:50:22.676Z,1018.61
2022-08-23T09:51:22.664Z,1018.62
2022-08-23T09:52:22.669Z,1018.69
2022-08-23T09:53:22.657Z,1018.61
2022-08-23T09:54:22.665Z,1018.65
2022-08-23T09:55:22.667Z,1018.66
2022-08-23T09:56:22.662Z,1018.62
2022-08-23T09:57:22.663Z,1018.65
2022-08-23T09:58:22.657Z,1018.67
2022-08-23T09:59:25.019Z,1018.67
2022-08-23T10:00:22.668Z,1018.67
2022-08-23T10:01:22.714Z,1018.69
2022-08-23T10:02:22.648Z,1018.68
2022-08-23T10:03:22.654Z,1018.69
2022-08-23T10:04:22.715Z,1018.69
2022-08-23T10:05:22.693Z,1018.73
2022-08-23T10:06:22.658Z,1018.72
2022-08-23T10:07:22.652Z,1018.73
2022-08-23T10:08:22.652Z,1018.72
2022-08-23T10:09:22.661Z,1018.69
2022-08-23T10:10:22.662Z,1018.69
2022-08-23T10:11:22.666Z,1018.74
2022-08-23T10:12:22.658Z,1018.75
2022-08-23T10:13:22.652Z,1018.75
2022-08-23T10:14:23.461Z,1018.81
2022-08-23T10:15:22.658Z,1018.81
2022-08-23T10:16:22.723Z,1018.78
2022-08-23T10:17:22.648Z,1018.76
2022-08-23T10:51:31.314Z,1018.91
2022-08-23T10:52:22.645Z,1018.91
2022-08-23T10:53:22.654Z,1018.88
2022-08-23T10:54:22.674Z,1018.91
2022-08-23T10:55:22.659Z,1018.89
2022-08-23T10:56:22.669Z,1018.94
2022-08-23T10:57:22.661Z,1018.92
2022-08-23T10:58:22.660Z,1018.92
2022-08-23T10:59:22.647Z,1018.92
2022-08-23T11:00:22.669Z,1018.92
2022-08-23T11:01:22.725Z,1018.92
2022-08-23T11:02:22.697Z,1018.9
2022-08-23T11:03:26.902Z,1018.88
2022-08-23T11:04:22.648Z,1018.93
2022-08-23T11:05:22.656Z,1018.82
2022-08-23T11:06:22.664Z,1018.88
2022-08-23T11:07:22.645Z,1018.93
2022-08-23T11:08:22.651Z,1018.89
2022-08-23T11:09:22.692Z,1018.9
2022-08-23T11:10:22.641Z,1018.9
2022-08-23T11:11:22.670Z,1018.93
2022-08-23T11:12:22.660Z,1018.91
2022-08-23T11:13:22.656Z,1018.92
2022-08-23T11:14:22.653Z,1018.95
2022-08-23T11:15:22.654Z,1018.97
2022-08-23T11:16:22.646Z,1018.97
2022-08-23T11:17:22.659Z,1018.97
2022-08-23T11:18:22.646Z,1018.96
2022-08-23T11:19:22.665Z,1018.99
2022-08-23T11:20:22.668Z,1018.99
2022-08-23T11:21:22.658Z,1018.96
2022-08-23T11:22:22.663Z,1018.96
2022-08-23T11:23:22.647Z,1018.99
2022-08-23T11:24:22.674Z,1018.98
2022-08-23T11:25:22.653Z,1018.98
2022-08-23T11:26:22.659Z,1019
2022-08-23T11:27:22.647Z,1019.01
2022-08-23T11:28:22.650Z,1019.02
2022-08-23T11:29:22.669Z,1019.02
2022-08-23T11:30:22.679Z,1019.02
2022-08-23T11:31:22.709Z,1019.02
2022-08-23T11:32:24.280Z,1018.99
2022-08-23T11:33:22.656Z,1019.02
2022-08-23T11:34:29.500Z,1019
2022-08-23T11:35:22.661Z,1019
2022-08-23T11:36:22.729Z,1019.02
2022-08-23T11:37:23.468Z,1019
2022-08-23T11:38:22.792Z,1018.99
2022-08-23T11:39:25.298Z,1018.98
2022-08-23T11:40:22.679Z,1018.98
2022-08-23T11:41:22.680Z,1018.99
2022-08-23T11:42:22.663Z,1018.99
2022-08-23T11:43:22.667Z,1019.01
2022-08-23T11:44:22.672Z,1019.01
2022-08-23T11:45:22.677Z,1019
2022-08-23T11:46:22.737Z,1019
2022-08-23T11:47:22.654Z,1019.01
2022-08-23T11:48:22.659Z,1018.98
2022-08-23T11:49:22.669Z,1018.98
2022-08-23T11:50:22.655Z,1018.98
2022-08-23T11:51:22.671Z,1018.99
2022-08-23T11:52:22.673Z,1019.02
2022-08-23T11:53:22.665Z,1018.99
2022-08-23T11:54:22.687Z,1019.03
2022-08-23T11:55:22.654Z,1019.03
2022-08-23T11:56:22.672Z,1019.05
2022-08-23T11:57:22.662Z,1019.06
2022-08-23T12:28:22.684Z,1019.13
2022-08-23T12:59:41.848Z,1019.19
2022-08-23T13:00:40.736Z,1019.17
2022-08-23T13:01:40.756Z,1019.18
2022-08-23T13:02:40.808Z,1019.12
2022-08-23T13:03:40.719Z,1019.16
2022-08-23T13:04:40.714Z,1019.16
2022-08-23T13:05:40.710Z,1019.18
2022-08-23T13:06:40.753Z,1019.19
2022-08-23T13:08:34.625Z,1019.2
2022-08-23T13:09:26.332Z,1019.2
2022-08-23T13:10:26.351Z,1019.2
2022-08-23T13:11:26.277Z,1019.21
2022-08-23T13:12:26.278Z,1019.22
2022-08-23T13:13:26.276Z,1019.17
2022-08-23T13:14:26.312Z,1019.22
2022-08-23T13:15:26.341Z,1019.19
2022-08-23T13:16:27.344Z,1019.18
2022-08-23T13:17:26.284Z,1019.2
2022-08-23T13:18:26.267Z,1019.21
2022-08-23T13:19:26.283Z,1019.21
2022-08-23T13:20:26.318Z,1019.21
2022-08-23T13:21:26.264Z,1019.18
2022-08-23T13:22:26.268Z,1019.19
2022-08-23T13:23:26.267Z,1019.22
2022-08-23T13:24:37.890Z,1019.21
2022-08-23T13:25:31.157Z,1019.24
2022-08-23T13:26:26.939Z,1019.22
2022-08-23T13:27:26.271Z,1019.23
2022-08-23T13:28:26.270Z,1019.25
2022-08-23T13:29:26.284Z,1019.27
2022-08-23T13:30:26.267Z,1019.27
2022-08-23T13:31:26.300Z,1019.23
2022-08-23T13:32:27.044Z,1019.27
2022-08-23T13:33:26.264Z,1019.24
2022-08-23T13:34:26.283Z,1019.22
2022-08-23T13:35:26.271Z,1019.22
2022-08-23T13:36:26.278Z,1019.24
2022-08-23T13:37:26.272Z,1019.24
2022-08-23T13:38:26.263Z,1019.23
2022-08-23T13:39:26.291Z,1019.2
2022-08-23T13:40:26.336Z,1019.25
2022-08-23T13:41:26.260Z,1019.25
2022-08-23T13:42:26.265Z,1019.25
2022-08-23T13:43:26.262Z,1019.22
2022-08-23T13:44:26.288Z,1019.26
2022-08-23T13:45:26.266Z,1019.25
2022-08-23T13:46:26.755Z,1019.21
2022-08-23T13:47:26.263Z,1019.17
2022-08-23T13:48:26.264Z,1019.17
2022-08-23T13:49:26.275Z,1019.17
2022-08-23T13:50:26.274Z,1019.17
2022-08-23T13:51:26.267Z,1019.15
2022-08-23T13:52:51.032Z,1019.17
2022-08-23T13:53:26.332Z,1019.15
2022-08-23T13:54:26.273Z,1019.23
2022-08-23T13:55:26.275Z,1019.19
2022-08-23T13:56:26.269Z,1019.22
2022-08-23T13:57:29.979Z,1019.2
2022-08-23T13:58:26.266Z,1019.2
2022-08-23T13:59:26.848Z,1019.23
2022-08-23T14:00:26.285Z,1019.23
2022-08-23T14:01:26.314Z,1019.2
2022-08-23T14:02:26.273Z,1019.17
2022-08-23T14:03:26.287Z,1019.15
2022-08-23T14:04:26.257Z,1019.17
2022-08-23T14:05:26.298Z,1019.18
2022-08-23T14:06:26.291Z,1019.16
2022-08-23T14:07:26.269Z,1019.17
2022-08-23T14:08:26.274Z,1019.14
2022-08-23T14:09:26.269Z,1019.16
2022-08-23T14:10:26.270Z,1019.16
2022-08-23T14:11:26.251Z,1019.16
2022-08-23T14:12:27.578Z,1019.19
2022-08-23T14:13:26.268Z,1019.19
2022-08-23T14:14:26.263Z,1019.19
2022-08-23T14:15:56.517Z,1019.17
2022-08-23T14:16:34.256Z,1019.17
2022-08-23T14:17:26.288Z,1019.18
2022-08-23T14:18:26.272Z,1019.21
2022-08-23T14:20:31.019Z,1019.21
2022-08-23T14:20:43.578Z,1019.21
2022-08-23T14:21:26.266Z,1019.15
2022-08-23T14:22:26.254Z,1019.15
2022-08-23T14:23:26.270Z,1019.2
2022-08-23T14:24:26.899Z,1019.2
2022-08-23T14:25:26.251Z,1019.24
2022-08-23T14:26:26.263Z,1019.22
2022-08-23T14:27:26.262Z,1019.2
2022-08-23T14:28:26.271Z,1019.24
2022-08-23T14:29:26.274Z,1019.2
2022-08-23T14:30:29.513Z,1019.2
2022-08-23T14:31:26.274Z,1019.24
2022-08-23T14:32:26.268Z,1019.2
2022-08-23T14:33:26.275Z,1019.2
2022-08-23T14:34:26.256Z,1019.2
2022-08-23T14:35:26.255Z,1019.2
2022-08-23T14:36:26.433Z,1019.17
2022-08-23T14:38:26.273Z,1019.18
2022-08-23T14:39:26.269Z,1019.14
2022-08-23T14:40:26.312Z,1019.14
2022-08-23T14:41:26.258Z,1019.17
2022-08-23T14:42:26.265Z,1019.18
2022-08-23T14:43:26.938Z,1019.16
2022-08-23T14:44:30.181Z,1019.2
2022-08-23T14:45:26.260Z,1019.24
2022-08-23T14:46:26.367Z,1019.24
2022-08-23T14:47:26.268Z,1019.24
2022-08-23T14:48:26.272Z,1019.27
2022-08-23T14:49:26.265Z,1019.27
2022-08-23T14:50:28.235Z,1019.27
2022-08-23T14:51:26.258Z,1019.32
2022-08-23T14:52:26.253Z,1019.3
2022-08-23T14:53:26.360Z,1019.31
2022-08-23T14:54:26.271Z,1019.3
2022-08-23T14:55:26.254Z,1019.36
2022-08-23T14:56:26.252Z,1019.32
2022-08-23T14:57:26.258Z,1019.32
2022-08-23T14:58:26.269Z,1019.29
2022-08-23T14:59:26.446Z,1019.3
2022-08-23T15:00:26.253Z,1019.33
2022-08-23T15:01:26.381Z,1019.32
2022-08-23T15:02:26.253Z,1019.32
2022-08-23T15:03:26.340Z,1019.32
2022-08-23T15:04:30.409Z,1019.3
2022-08-23T15:05:26.259Z,1019.37
2022-08-23T15:06:26.244Z,1019.38
2022-08-23T15:07:26.258Z,1019.36
2022-08-23T15:08:26.262Z,1019.33
2022-08-23T15:09:26.255Z,1019.36
2022-08-23T15:10:51.299Z,1019.36
2022-08-23T15:13:32.905Z,1019.33
2022-08-23T15:14:26.283Z,1019.37
2022-08-23T15:15:26.260Z,1019.37
2022-08-23T15:16:26.320Z,1019.33
2022-08-23T15:17:31.223Z,1019.33
2022-08-23T15:18:26.265Z,1019.35
2022-08-23T15:19:26.248Z,1019.36
2022-08-23T15:20:26.253Z,1019.36
2022-08-23T15:21:26.245Z,1019.29
2022-08-23T15:22:26.272Z,1019.27
2022-08-23T15:23:26.263Z,1019.27
2022-08-23T15:24:26.252Z,1019.26
2022-08-23T15:25:26.278Z,1019.26
2022-08-23T15:26:26.245Z,1019.25
2022-08-23T15:27:26.250Z,1019.26
2022-08-23T15:28:26.248Z,1019.24
2022-08-23T15:29:26.260Z,1019.25
2022-08-23T15:30:26.355Z,1019.25
2022-08-23T15:31:26.259Z,1019.23
2022-08-23T15:32:26.263Z,1019.22
2022-08-23T15:33:29.564Z,1019.23
2022-08-23T15:34:26.252Z,1019.24
2022-08-23T15:35:26.245Z,1019.26
2022-08-23T15:36:26.254Z,1019.24
2022-08-23T15:37:26.247Z,1019.24
2022-08-23T15:38:26.270Z,1019.28
2022-08-23T15:39:26.256Z,1019.27
2022-08-23T15:40:26.346Z,1019.27
2022-08-23T15:41:26.262Z,1019.24
2022-08-23T15:42:26.292Z,1019.24
2022-08-23T15:43:33.938Z,1019.23
2022-08-23T15:44:26.269Z,1019.23
2022-08-23T15:45:26.254Z,1019.21
2022-08-23T15:46:26.276Z,1019.25
2022-08-23T15:47:26.251Z,1019.22
2022-08-23T15:48:26.268Z,1019.22
2022-08-23T15:49:26.256Z,1019.22
2022-08-23T15:50:26.256Z,1019.22
2022-08-23T15:51:26.251Z,1019.24
2022-08-23T15:52:26.251Z,1019.25
2022-08-23T15:53:26.268Z,1019.21
2022-08-23T15:54:26.251Z,1019.22
2022-08-23T15:55:26.255Z,1019.21
2022-08-23T15:56:26.250Z,1019.22
2022-08-23T15:57:27.941Z,1019.23
2022-08-23T15:58:26.276Z,1019.24
2022-08-23T15:59:26.269Z,1019.21
2022-08-23T16:00:26.270Z,1019.21
2022-08-23T16:01:26.283Z,1019.23
2022-08-23T16:02:26.293Z,1019.19
2022-08-23T16:03:26.301Z,1019.19
2022-08-23T16:04:26.253Z,1019.21
2022-08-23T16:05:26.254Z,1019.22
2022-08-23T16:06:26.258Z,1019.23
2022-08-23T16:07:26.250Z,1019.21
2022-08-23T16:08:26.332Z,1019.19
2022-08-23T16:09:26.278Z,1019.23
2022-08-23T16:10:26.278Z,1019.23
2022-08-23T16:11:26.248Z,1019.23
2022-08-23T16:12:26.254Z,1019.19
2022-08-23T16:13:26.452Z,1019.19
2022-08-23T16:14:26.265Z,1019.2
2022-08-23T16:15:26.255Z,1019.2
2022-08-23T16:16:26.364Z,1019.18
2022-08-23T16:17:26.294Z,1019.2
2022-08-23T16:18:26.305Z,1019.19
2022-08-23T16:19:26.292Z,1019.19
2022-08-23T16:20:26.302Z,1019.19
2022-08-23T16:21:26.319Z,1019.22
2022-08-23T16:22:26.285Z,1019.19
2022-08-23T16:23:26.309Z,1019.21
2022-08-23T16:24:26.298Z,1019.23
2022-08-23T16:25:26.259Z,1019.24
2022-08-23T16:26:30.881Z,1019.2
2022-08-23T16:27:26.248Z,1019.24
2022-08-23T16:28:26.263Z,1019.27
2022-08-23T16:29:26.261Z,1019.25
2022-08-23T16:30:26.288Z,1019.25
2022-08-23T16:31:39.056Z,1019.22
2022-08-23T16:32:26.254Z,1019.3
2022-08-23T16:33:26.269Z,1019.29
2022-08-23T16:34:26.250Z,1019.28
2022-08-23T16:35:26.248Z,1019.29
2022-08-23T16:36:30.148Z,1019.28
2022-08-23T16:37:26.260Z,1019.24
2022-08-23T16:38:26.268Z,1019.27
2022-08-23T16:39:26.251Z,1019.28
2022-08-23T16:40:26.317Z,1019.28
2022-08-23T16:41:26.253Z,1019.27
2022-08-23T16:42:26.266Z,1019.24
2022-08-23T16:43:26.259Z,1019.24
2022-08-23T16:44:26.265Z,1019.24
2022-08-23T16:45:26.560Z,1019.22
2022-08-23T16:46:26.376Z,1019.22
2022-08-23T16:47:26.280Z,1019.23
2022-08-23T16:48:26.263Z,1019.29
2022-08-23T16:49:26.245Z,1019.29
2022-08-23T16:50:26.262Z,1019.29
2022-08-23T16:51:26.255Z,1019.29
2022-08-23T16:52:35.025Z,1019.26
2022-08-23T16:53:26.271Z,1019.26
2022-08-23T16:54:26.256Z,1019.26
2022-08-23T16:55:26.257Z,1019.28
2022-08-23T16:56:26.258Z,1019.22
2022-08-23T16:57:26.257Z,1019.23
2022-08-23T16:58:26.267Z,1019.23
2022-08-23T16:59:26.305Z,1019.21
2022-08-23T17:00:26.253Z,1019.21
2022-08-23T17:01:26.319Z,1019.22
2022-08-23T17:02:26.268Z,1019.21
2022-08-23T17:03:27.241Z,1019.22
2022-08-23T17:04:30.328Z,1019.24
2022-08-23T17:05:26.249Z,1019.24
2022-08-23T17:06:26.262Z,1019.24
2022-08-23T17:07:26.247Z,1019.22
2022-08-23T17:08:26.251Z,1019.24
2022-08-23T17:09:26.249Z,1019.25
2022-08-23T17:10:26.250Z,1019.25
2022-08-23T17:11:29.900Z,1019.27
2022-08-23T17:12:26.251Z,1019.29
2022-08-23T17:13:26.256Z,1019.27
2022-08-23T17:14:26.283Z,1019.29
2022-08-23T17:15:26.254Z,1019.29
2022-08-23T17:16:26.369Z,1019.36
2022-08-23T17:17:26.245Z,1019.31
2022-08-23T17:18:26.260Z,1019.36
2022-08-23T17:19:26.254Z,1019.4
2022-08-23T17:20:26.248Z,1019.4
2022-08-23T17:21:26.261Z,1019.37
2022-08-23T17:22:26.250Z,1019.37
2022-08-23T17:23:26.266Z,1019.4
2022-08-23T17:24:26.255Z,1019.44
2022-08-23T17:25:26.295Z,1019.44
2022-08-23T17:26:26.253Z,1019.41
2022-08-23T17:27:26.249Z,1019.47
2022-08-23T17:28:26.267Z,1019.46
2022-08-23T17:29:26.262Z,1019.47
2022-08-23T17:30:26.248Z,1019.47
2022-08-23T17:31:26.293Z,1019.5
2022-08-23T17:32:26.256Z,1019.5
2022-08-23T17:33:26.264Z,1019.49
2022-08-23T17:34:26.255Z,1019.5
2022-08-23T17:35:26.270Z,1019.54
2022-08-23T17:36:26.246Z,1019.55
2022-08-23T17:37:26.251Z,1019.56
2022-08-23T17:38:26.266Z,1019.65
2022-08-23T17:39:26.259Z,1019.65
2022-08-23T17:40:26.332Z,1019.65
2022-08-23T17:41:26.248Z,1019.68
2022-08-23T17:42:26.247Z,1019.67
2022-08-23T17:43:26.262Z,1019.7
2022-08-23T17:44:26.260Z,1019.73
2022-08-23T17:45:26.289Z,1019.73
2022-08-23T17:46:26.255Z,1019.69
2022-08-23T17:47:26.253Z,1019.73
2022-08-23T17:48:26.246Z,1019.77
2022-08-23T17:49:26.251Z,1019.77
2022-08-23T17:50:26.249Z,1019.77
2022-08-23T17:51:26.251Z,1019.8
2022-08-23T17:52:26.247Z,1019.82
2022-08-23T17:53:26.261Z,1019.82
2022-08-23T17:54:26.251Z,1019.83
2022-08-23T17:55:26.254Z,1019.85
2022-08-23T17:56:26.255Z,1019.87
2022-08-23T17:57:26.248Z,1019.89
2022-08-23T17:58:26.253Z,1019.87
2022-08-23T17:59:26.493Z,1019.9
2022-08-23T18:00:26.260Z,1019.9
2022-08-23T18:01:26.298Z,1019.91
2022-08-23T18:02:26.240Z,1019.9
2022-08-23T18:03:26.256Z,1019.93
2022-08-23T18:04:26.320Z,1019.92
2022-08-23T18:05:26.306Z,1019.92
2022-08-23T18:06:26.235Z,1019.93
2022-08-23T18:07:26.249Z,1019.96
2022-08-23T18:08:26.254Z,1019.94
2022-08-23T18:09:26.246Z,1019.97
2022-08-23T18:10:26.249Z,1019.97
2022-08-23T18:11:26.250Z,1019.99
2022-08-23T18:12:26.249Z,1020
2022-08-23T18:13:26.259Z,1020.02
2022-08-23T18:14:26.271Z,1020.01
2022-08-23T18:15:26.250Z,1020.01
2022-08-23T18:16:26.298Z,1020.04
2022-08-23T18:17:26.252Z,1020.04
2022-08-23T18:18:26.246Z,1020.05
2022-08-23T18:19:26.253Z,1020.07
2022-08-23T18:20:26.246Z,1020.07
2022-08-23T18:21:26.252Z,1020.12
2022-08-23T18:22:26.251Z,1020.11
2022-08-23T18:23:26.266Z,1020.16
2022-08-23T18:24:26.243Z,1020.17
2022-08-23T18:25:51.577Z,1020.15
2022-08-23T18:26:49.945Z,1020.21
2022-08-23T18:27:49.937Z,1020.2
2022-08-23T18:28:49.946Z,1020.21
2022-08-23T18:29:51.525Z,1020.21
2022-08-23T18:30:49.941Z,1020.23
2022-08-23T18:31:49.971Z,1020.28
2022-08-23T18:32:49.938Z,1020.26
2022-08-23T18:33:49.936Z,1020.25
2022-08-23T18:34:49.929Z,1020.3
2022-08-23T18:36:25.035Z,1020.33
2022-08-23T18:38:50.834Z,1020.41
2022-08-23T18:40:53.009Z,1020.42
2022-08-23T18:41:51.892Z,1020.44
2022-08-23T18:43:37.616Z,1020.48
2022-08-23T18:44:30.756Z,1020.5
2022-08-23T18:45:30.787Z,1020.46
2022-08-23T18:47:31.223Z,1020.44
2022-08-23T18:49:21.979Z,1020.47
2022-08-23T18:50:21.135Z,1020.47
2022-08-23T18:51:20.941Z,1020.5
2022-08-23T18:52:20.933Z,1020.51
2022-08-23T18:53:20.930Z,1020.56
2022-08-23T18:54:20.929Z,1020.55
2022-08-23T18:55:20.933Z,1020.55
2022-08-23T18:56:20.925Z,1020.53
2022-08-23T18:57:20.930Z,1020.56
2022-08-23T18:58:20.995Z,1020.53
2022-08-23T18:59:21.013Z,1020.54
2022-08-23T19:00:20.985Z,1020.54
2022-08-23T19:01:21.078Z,1020.58
2022-08-23T19:02:21.137Z,1020.58
2022-08-23T19:03:20.930Z,1020.57
2022-08-23T19:04:20.927Z,1020.57
2022-08-23T19:05:20.910Z,1020.57
2022-08-23T19:06:20.927Z,1020.57
2022-08-23T19:07:20.926Z,1020.58
2022-08-23T19:08:20.926Z,1020.6
2022-08-23T19:09:20.926Z,1020.6
2022-08-23T19:10:20.901Z,1020.6
2022-08-23T19:11:20.922Z,1020.56
2022-08-23T19:12:20.925Z,1020.57
2022-08-23T19:13:20.916Z,1020.55
2022-08-23T19:14:20.935Z,1020.54
2022-08-23T19:15:20.915Z,1020.54
2022-08-23T19:16:21.588Z,1020.57
2022-08-23T19:17:20.922Z,1020.57
2022-08-23T19:18:20.921Z,1020.56
2022-08-23T19:19:20.928Z,1020.55
2022-08-23T19:20:20.908Z,1020.55
2022-08-23T19:21:20.921Z,1020.61
2022-08-23T19:22:20.989Z,1020.55
2022-08-23T19:23:20.921Z,1020.6
2022-08-23T19:24:21.004Z,1020.6
2022-08-23T19:25:20.902Z,1020.6
2022-08-23T19:26:20.920Z,1020.63
2022-08-23T19:27:20.924Z,1020.62
2022-08-23T19:28:20.920Z,1020.58
2022-08-23T19:29:20.931Z,1020.63
2022-08-23T19:30:20.919Z,1020.63
2022-08-23T19:31:20.992Z,1020.65
2022-08-23T19:32:20.952Z,1020.63
2022-08-23T19:33:20.922Z,1020.65
2022-08-23T19:34:20.942Z,1020.67
2022-08-23T19:35:20.905Z,1020.67
2022-08-23T19:36:44.746Z,1020.7
2022-08-23T19:37:22.790Z,1020.7
2022-08-23T19:38:20.902Z,1020.73
2022-08-23T19:39:20.913Z,1020.73
2022-08-23T19:40:20.928Z,1020.73
2022-08-23T19:41:20.896Z,1020.76
2022-08-23T19:42:20.910Z,1020.74
2022-08-23T19:43:20.910Z,1020.72
2022-08-23T19:44:20.910Z,1020.72
2022-08-23T19:45:20.920Z,1020.72
2022-08-23T19:46:20.915Z,1020.78
2022-08-23T19:47:21.608Z,1020.78
2022-08-23T19:48:20.906Z,1020.76
2022-08-23T19:49:20.902Z,1020.76
2022-08-23T19:50:24.378Z,1020.76
2022-08-23T19:51:20.905Z,1020.76
2022-08-23T19:52:20.920Z,1020.77
2022-08-23T19:53:20.922Z,1020.82
2022-08-23T19:54:20.914Z,1020.78
2022-08-23T19:55:20.897Z,1020.78
2022-08-23T19:56:20.920Z,1020.76
2022-08-23T19:57:20.914Z,1020.77
2022-08-23T19:58:20.928Z,1020.77
2022-08-23T19:59:20.920Z,1020.77
2022-08-23T20:00:20.921Z,1020.77
2022-08-23T20:01:21.029Z,1020.79
2022-08-23T20:02:20.985Z,1020.79
2022-08-23T20:03:20.928Z,1020.8
2022-08-23T20:04:20.921Z,1020.81
2022-08-23T20:05:20.919Z,1020.83
2022-08-23T20:06:20.919Z,1020.79
2022-08-23T20:07:20.919Z,1020.78
2022-08-23T20:08:20.959Z,1020.82
2022-08-23T20:09:20.918Z,1020.87
2022-08-23T20:10:20.920Z,1020.86
2022-08-23T20:11:20.926Z,1020.83
2022-08-23T20:12:20.917Z,1020.87
2022-08-23T20:13:20.932Z,1020.86
2022-08-23T20:14:20.922Z,1020.88
2022-08-23T20:15:20.909Z,1020.88
2022-08-23T20:16:20.952Z,1020.88
2022-08-23T20:17:20.922Z,1020.89
2022-08-23T20:18:20.921Z,1020.93
2022-08-23T20:19:20.923Z,1020.93
2022-08-23T20:20:20.930Z,1020.92
2022-08-23T20:21:23.930Z,1020.92
2022-08-23T20:22:20.911Z,1020.92
2022-08-23T20:23:20.922Z,1020.93
2022-08-23T20:24:37.358Z,1020.98
2022-08-23T20:25:20.912Z,1020.96
2022-08-23T20:26:20.922Z,1020.95
2022-08-23T20:27:25.434Z,1020.96
2022-08-23T20:28:25.747Z,1020.96
2022-08-23T20:29:20.913Z,1020.99
